createdAt,value
2019-03-19T00:00:12.863Z,101878.35
2019-03-19T00:02:41.398Z,101874.13
2019-03-19T00:05:09.900Z,101877.98
2019-03-19T00:07:38.520Z,101876.17
2019-03-19T00:10:09.085Z,101876.40
2019-03-19T00:12:37.530Z,101876.63
2019-03-19T00:15:08.428Z,101885.14
2019-03-19T00:17:36.855Z,101885.14
2019-03-19T00:20:11.274Z,101894.37
2019-03-19T00:22:40.021Z,101896.20
2019-03-19T00:25:09.181Z,101894.02
2019-03-19T00:27:37.668Z,101891.37
2019-03-19T00:30:12.395Z,101897.61
2019-03-19T00:32:40.836Z,101897.47
2019-03-19T00:35:09.271Z,101902.62
2019-03-19T00:37:39.227Z,101899.25
2019-03-19T00:40:12.378Z,101899.47
2019-03-19T00:42:51.374Z,101911.02
2019-03-19T00:45:19.801Z,101899.73
2019-03-19T00:47:48.337Z,101907.14
2019-03-19T00:50:17.094Z,101904.73
2019-03-19T00:52:45.521Z,101905.05
2019-03-19T00:55:14.300Z,101915.00
2019-03-19T00:57:43.244Z,101915.22
2019-03-19T01:00:19.094Z,101913.67
2019-03-19T01:02:47.806Z,101912.44
2019-03-19T01:05:16.264Z,101915.66
2019-03-19T01:07:44.825Z,101917.58
2019-03-19T01:10:17.489Z,101923.92
2019-03-19T01:12:44.878Z,101926.33
2019-03-19T01:15:14.732Z,101925.95
2019-03-19T01:17:43.166Z,101934.09
2019-03-19T01:20:18.307Z,101922.44
2019-03-19T01:22:46.747Z,101916.07
2019-03-19T01:25:15.185Z,101920.61
2019-03-19T01:27:43.757Z,101923.10
2019-03-19T01:30:13.716Z,101925.00
2019-03-19T01:32:42.229Z,101931.23
2019-03-19T01:35:10.790Z,101932.45
2019-03-19T01:37:39.438Z,101937.23
2019-03-19T01:40:10.456Z,101934.02
2019-03-19T01:42:39.167Z,101933.64
2019-03-19T01:45:10.038Z,101940.23
2019-03-19T01:47:38.768Z,101940.23
2019-03-19T01:50:10.196Z,101945.52
2019-03-19T01:52:38.677Z,101948.15
2019-03-19T01:55:10.482Z,101944.56
2019-03-19T01:57:38.943Z,101947.56
2019-03-19T02:00:10.914Z,101948.76
2019-03-19T02:02:39.487Z,101944.12
2019-03-19T02:05:08.127Z,101953.13
2019-03-19T02:07:36.554Z,101951.97
2019-03-19T02:10:07.920Z,101957.11
2019-03-19T02:12:36.486Z,101958.34
2019-03-19T02:15:07.287Z,101961.92
2019-03-19T02:17:35.887Z,101970.42
2019-03-19T02:20:06.190Z,101972.33
2019-03-19T02:22:34.608Z,101973.28
2019-03-19T02:25:03.301Z,101975.33
2019-03-19T02:27:32.927Z,101976.80
2019-03-19T02:30:01.342Z,101979.09
2019-03-19T02:32:29.787Z,101979.11
2019-03-19T02:34:58.353Z,101978.31
2019-03-19T02:37:26.810Z,101980.14
2019-03-19T02:39:55.239Z,101974.42
2019-03-19T02:42:23.710Z,101970.24
2019-03-19T02:44:52.218Z,101973.03
2019-03-19T02:47:24.799Z,101980.69
2019-03-19T02:49:53.751Z,101984.42
2019-03-19T02:52:22.238Z,101988.16
2019-03-19T02:54:50.665Z,101993.58
2019-03-19T02:57:19.122Z,102000.32
2019-03-19T02:59:47.550Z,101996.73
2019-03-19T03:02:15.992Z,102003.55
2019-03-19T03:04:44.443Z,102019.61
2019-03-19T03:07:12.887Z,102019.46
2019-03-19T03:09:41.852Z,102024.01
2019-03-19T03:12:10.359Z,102019.08
2019-03-19T03:14:38.758Z,102013.92
2019-03-19T03:17:07.197Z,102015.12
2019-03-19T03:19:35.720Z,102027.60
2019-03-19T03:22:04.254Z,102028.11
2019-03-19T03:24:32.666Z,102032.22
2019-03-19T03:27:02.434Z,102033.68
2019-03-19T03:29:31.136Z,102043.06
2019-03-19T03:31:59.630Z,102047.75
2019-03-19T03:34:28.468Z,102052.45
2019-03-19T03:36:56.882Z,102042.94
2019-03-19T03:39:25.315Z,102044.84
2019-03-19T03:41:53.796Z,102051.57
2019-03-19T03:44:22.231Z,102050.34
2019-03-19T03:46:50.659Z,102060.08
2019-03-19T03:49:19.450Z,102063.67
2019-03-19T03:51:47.927Z,102070.27
2019-03-19T03:54:16.704Z,102066.67
2019-03-19T03:56:45.651Z,102063.08
2019-03-19T03:59:14.066Z,102067.41
2019-03-19T04:01:42.521Z,102075.11
2019-03-19T04:04:10.971Z,102069.24
2019-03-19T04:06:39.530Z,102063.01
2019-03-19T04:09:09.400Z,102062.42
2019-03-19T04:11:38.213Z,102060.97
2019-03-19T04:14:06.647Z,102071.44
2019-03-19T04:16:35.084Z,102067.11
2019-03-19T04:19:03.994Z,102072.03
2019-03-19T04:21:32.457Z,102073.44
2019-03-19T04:24:00.932Z,102075.84
2019-03-19T04:26:29.449Z,102082.53
2019-03-19T04:28:57.904Z,102086.12
2019-03-19T04:31:26.345Z,102082.88
2019-03-19T04:33:54.872Z,102081.54
2019-03-19T04:36:23.304Z,102083.75
2019-03-19T04:38:51.748Z,102096.55
2019-03-19T04:41:20.353Z,102091.47
2019-03-19T04:43:48.972Z,102095.85
2019-03-19T04:46:17.412Z,102091.74
2019-03-19T04:48:45.852Z,102098.70
2019-03-19T04:51:14.281Z,102097.60
2019-03-19T04:53:42.702Z,102102.14
2019-03-19T04:56:11.151Z,102098.77
2019-03-19T04:58:39.617Z,102104.41
2019-03-19T05:01:08.048Z,102103.09
2019-03-19T05:03:36.523Z,102108.37
2019-03-19T05:06:05.361Z,102115.33
2019-03-19T05:08:33.800Z,102119.66
2019-03-19T05:11:02.336Z,102123.61
2019-03-19T05:13:30.785Z,102130.94
2019-03-19T05:15:59.207Z,102148.09
2019-03-19T05:18:28.006Z,102174.47
2019-03-19T05:20:56.604Z,102171.75
2019-03-19T05:23:25.041Z,102175.95
2019-03-19T05:25:53.826Z,102173.93
2019-03-19T05:28:22.449Z,102180.59
2019-03-19T05:30:50.871Z,102187.23
2019-03-19T05:33:19.609Z,102187.84
2019-03-19T05:35:49.636Z,102195.55
2019-03-19T05:38:18.061Z,102186.84
2019-03-19T05:40:46.520Z,102197.55
2019-03-19T05:43:14.945Z,102190.37
2019-03-19T05:45:43.382Z,102184.14
2019-03-19T05:48:11.868Z,102187.14
2019-03-19T05:50:40.460Z,102178.37
2019-03-19T05:53:09.108Z,102180.55
2019-03-19T05:55:37.651Z,102179.96
2019-03-19T05:58:06.069Z,102182.60
2019-03-19T06:00:36.149Z,102188.03
2019-03-19T06:03:04.892Z,102187.82
2019-03-19T06:05:33.316Z,102190.25
2019-03-19T06:08:01.741Z,102189.05
2019-03-19T06:10:30.575Z,102198.07
2019-03-19T06:12:59.012Z,102198.59
2019-03-19T06:15:27.497Z,102204.23
2019-03-19T06:17:55.961Z,102209.30
2019-03-19T06:20:24.385Z,102221.34
2019-03-19T06:22:52.809Z,102225.91
2019-03-19T06:25:21.277Z,102227.14
2019-03-19T06:27:59.892Z,102230.03
2019-03-19T06:30:21.053Z,102227.75
2019-03-19T06:32:49.512Z,102226.92
2019-03-19T06:35:18.224Z,102228.34
2019-03-19T06:37:46.758Z,102226.41
2019-03-19T06:40:19.715Z,102233.59
2019-03-19T06:42:49.081Z,102241.61
2019-03-19T06:45:18.414Z,102239.46
2019-03-19T06:47:47.061Z,102247.75
2019-03-19T06:50:16.430Z,102247.75
2019-03-19T06:52:44.990Z,102250.39
2019-03-19T06:55:14.378Z,102246.80
2019-03-19T06:57:42.978Z,102254.51
2019-03-19T07:00:22.580Z,102255.61
2019-03-19T07:02:51.087Z,102249.63
2019-03-19T07:05:20.667Z,102259.63
2019-03-19T07:07:49.632Z,102258.61
2019-03-19T07:10:18.991Z,102261.70
2019-03-19T07:12:47.503Z,102262.84
2019-03-19T07:15:17.047Z,102259.67
2019-03-19T07:17:45.551Z,102264.76
2019-03-19T07:20:19.025Z,102273.44
2019-03-19T07:22:47.739Z,102277.83
2019-03-19T07:25:16.240Z,102276.70
2019-03-19T07:27:44.739Z,102272.88
2019-03-19T07:30:18.199Z,102281.81
2019-03-19T07:32:46.621Z,102277.25
2019-03-19T07:35:15.054Z,102277.25
2019-03-19T07:37:43.529Z,102287.37
2019-03-19T07:40:16.808Z,102287.14
2019-03-19T07:42:45.229Z,102292.50
2019-03-19T07:45:18.960Z,102299.02
2019-03-19T07:47:47.399Z,102296.10
2019-03-19T07:50:20.284Z,102295.38
2019-03-19T07:52:48.762Z,102311.89
2019-03-19T07:55:17.189Z,102301.04
2019-03-19T07:57:45.791Z,102311.77
2019-03-19T08:00:25.209Z,102307.30
2019-03-19T08:02:53.645Z,102316.56
2019-03-19T08:05:32.565Z,102343.55
2019-03-19T08:07:52.570Z,102319.23
2019-03-19T08:10:20.992Z,102323.11
2019-03-19T08:12:49.487Z,102323.95
2019-03-19T08:15:20.217Z,102326.13
2019-03-19T08:17:48.655Z,102317.67
2019-03-19T08:20:18.121Z,102318.64
2019-03-19T08:22:46.873Z,102319.86
2019-03-19T08:25:18.735Z,102318.77
2019-03-19T08:27:47.238Z,102326.20
2019-03-19T08:30:17.352Z,102327.77
2019-03-19T08:32:45.874Z,102331.74
2019-03-19T08:35:14.308Z,102334.98
2019-03-19T08:37:42.888Z,102341.09
2019-03-19T08:40:13.473Z,102345.44
2019-03-19T08:42:41.894Z,102345.08
2019-03-19T08:45:12.802Z,102356.66
2019-03-19T08:47:41.471Z,102354.00
2019-03-19T08:50:18.227Z,102357.49
2019-03-19T08:52:46.652Z,102367.84
2019-03-19T08:55:15.098Z,102365.14
2019-03-19T08:57:43.542Z,102367.30
2019-03-19T09:00:23.210Z,102364.75
2019-03-19T09:02:51.637Z,102377.42
2019-03-19T09:05:20.066Z,102394.89
2019-03-19T09:07:48.548Z,102386.57
2019-03-19T09:10:20.828Z,102378.47
2019-03-19T09:12:49.671Z,102388.55
2019-03-19T09:15:19.579Z,102389.70
2019-03-19T09:17:48.026Z,102390.52
2019-03-19T09:20:19.404Z,102396.09
2019-03-19T09:22:47.875Z,102396.34
2019-03-19T09:25:16.540Z,102410.81
2019-03-19T09:27:45.023Z,102403.45
2019-03-19T09:30:16.187Z,102407.61
2019-03-19T09:32:44.869Z,102408.53
2019-03-19T09:35:13.897Z,102418.44
2019-03-19T09:37:44.754Z,102421.11
2019-03-19T09:40:22.936Z,102414.97
2019-03-19T09:42:51.730Z,102423.91
2019-03-19T09:45:20.192Z,102424.98
2019-03-19T09:47:48.617Z,102431.13
2019-03-19T09:50:22.305Z,102424.94
2019-03-19T09:52:50.810Z,102428.78
2019-03-19T09:55:19.659Z,102431.89
2019-03-19T09:57:48.179Z,102427.50
2019-03-19T10:00:23.826Z,102432.66
2019-03-19T10:02:52.328Z,102439.09
2019-03-19T10:05:20.753Z,102447.08
2019-03-19T10:07:49.285Z,102442.95
2019-03-19T10:10:22.417Z,102447.08
2019-03-19T10:12:50.874Z,102448.51
2019-03-19T10:15:19.704Z,102453.21
2019-03-19T10:17:48.484Z,102445.13
2019-03-19T10:20:21.871Z,102452.27
2019-03-19T10:22:50.591Z,102470.70
2019-03-19T10:25:19.099Z,102471.56
2019-03-19T10:27:47.771Z,102475.91
2019-03-19T10:30:24.115Z,102463.80
2019-03-19T10:32:52.532Z,102459.60
2019-03-19T10:35:20.965Z,102452.63
2019-03-19T10:37:49.441Z,102462.00
2019-03-19T10:40:19.866Z,102454.67
2019-03-19T10:42:48.625Z,102469.58
2019-03-19T10:45:24.951Z,102477.11
2019-03-19T10:47:53.367Z,102476.41
2019-03-19T10:50:28.319Z,102471.53
2019-03-19T10:52:56.893Z,102469.50
2019-03-19T10:55:25.316Z,102482.92
2019-03-19T10:57:53.879Z,102473.91
2019-03-19T11:00:26.082Z,102482.42
2019-03-19T11:02:54.858Z,102484.76
2019-03-19T11:05:26.489Z,102481.66
2019-03-19T11:07:55.051Z,102487.37
2019-03-19T11:10:23.919Z,102491.77
2019-03-19T11:12:52.340Z,102486.50
2019-03-19T11:15:21.956Z,102496.98
2019-03-19T11:17:50.404Z,102490.61
2019-03-19T11:20:20.715Z,102498.86
2019-03-19T11:22:49.833Z,102497.98
2019-03-19T11:25:28.265Z,102489.36
2019-03-19T11:27:56.977Z,102507.02
2019-03-19T11:30:28.311Z,102507.11
2019-03-19T11:32:56.801Z,102495.83
2019-03-19T11:35:25.653Z,102496.12
2019-03-19T11:37:54.076Z,102488.73
2019-03-19T11:40:25.461Z,102496.03
2019-03-19T11:42:53.216Z,102497.11
2019-03-19T11:45:23.041Z,102500.44
2019-03-19T11:47:51.652Z,102508.34
2019-03-19T11:50:30.173Z,102510.31
2019-03-19T11:52:58.679Z,102509.30
2019-03-19T11:55:27.132Z,102518.66
2019-03-19T11:57:57.609Z,102516.39
2019-03-19T12:00:34.826Z,102520.55
2019-03-19T12:03:13.769Z,102512.61
2019-03-19T12:05:33.874Z,102514.08
2019-03-19T12:08:02.311Z,102514.30
2019-03-19T12:10:30.852Z,102523.30
2019-03-19T12:12:59.324Z,102534.63
2019-03-19T12:15:27.753Z,102536.13
2019-03-19T12:17:57.530Z,102536.84
2019-03-19T12:20:25.976Z,102530.63
2019-03-19T12:22:54.654Z,102520.34
2019-03-19T12:25:24.240Z,102532.63
2019-03-19T12:27:52.723Z,102534.16
2019-03-19T12:30:25.988Z,102549.95
2019-03-19T12:32:52.723Z,102534.41
2019-03-19T12:35:21.488Z,102551.64
2019-03-19T12:37:49.931Z,102550.25
2019-03-19T12:40:21.232Z,102544.09
2019-03-19T12:42:49.841Z,102537.84
2019-03-19T12:45:22.153Z,102539.38
2019-03-19T12:47:50.644Z,102543.02
2019-03-19T12:50:20.123Z,102532.00
2019-03-19T12:52:48.643Z,102540.34
2019-03-19T12:55:17.125Z,102549.50
2019-03-19T12:57:45.822Z,102554.72
2019-03-19T13:00:16.586Z,102551.31
2019-03-19T13:02:45.081Z,102550.52
2019-03-19T13:05:13.568Z,102549.42
2019-03-19T13:07:42.090Z,102550.48
2019-03-19T13:10:13.860Z,102556.38
2019-03-19T13:12:42.293Z,102555.84
2019-03-19T13:15:12.758Z,102558.94
2019-03-19T13:17:41.368Z,102558.06
2019-03-19T13:20:14.435Z,102564.06
2019-03-19T13:22:42.853Z,102561.78
2019-03-19T13:25:13.888Z,102567.09
2019-03-19T13:27:43.557Z,102575.70
2019-03-19T13:30:17.473Z,102566.49
2019-03-19T13:32:45.977Z,102571.63
2019-03-19T13:35:14.576Z,102566.91
2019-03-19T13:37:43.177Z,102569.22
2019-03-19T13:40:18.786Z,102581.01
2019-03-19T13:42:47.210Z,102566.98
2019-03-19T13:45:20.768Z,102583.52
2019-03-19T13:47:49.399Z,102580.86
2019-03-19T13:50:22.383Z,102585.48
2019-03-19T13:52:50.850Z,102575.23
2019-03-19T13:55:24.235Z,102584.62
2019-03-19T13:57:52.674Z,102587.25
2019-03-19T14:00:21.172Z,102596.16
2019-03-19T14:02:49.870Z,102609.34
2019-03-19T14:05:18.650Z,102587.25
2019-03-19T14:07:47.394Z,102595.98
2019-03-19T14:10:19.842Z,102598.87
2019-03-19T14:12:48.817Z,102596.52
2019-03-19T14:15:22.606Z,102601.53
2019-03-19T14:17:51.418Z,102598.28
2019-03-19T14:20:20.271Z,102596.69
2019-03-19T14:22:48.700Z,102595.70
2019-03-19T14:25:18.487Z,102590.27
2019-03-19T14:30:26.369Z,102611.00
2019-03-19T14:32:55.562Z,102588.75
2019-03-19T14:35:24.759Z,102598.90
2019-03-19T14:37:54.097Z,102594.84
2019-03-19T14:40:23.764Z,102598.67
2019-03-19T14:42:52.965Z,102598.30
2019-03-19T14:45:22.180Z,102608.66
2019-03-19T14:47:51.656Z,102616.96
2019-03-19T14:50:23.129Z,102609.69
2019-03-19T14:52:52.358Z,102623.73
2019-03-19T14:55:21.693Z,102617.53
2019-03-19T14:57:51.209Z,102629.25
2019-03-19T15:00:25.559Z,102625.02
2019-03-19T15:02:54.133Z,102626.27
2019-03-19T15:05:22.561Z,102623.00
2019-03-19T15:07:51.081Z,102625.68
2019-03-19T15:10:21.653Z,102616.58
2019-03-19T15:12:50.120Z,102628.59
2019-03-19T15:15:20.559Z,102626.02
2019-03-19T15:17:49.031Z,102633.23
2019-03-19T15:20:25.052Z,102634.91
2019-03-19T15:22:56.325Z,102632.72
2019-03-19T15:25:25.333Z,102634.98
2019-03-19T15:27:53.932Z,102641.55
2019-03-19T15:30:22.450Z,102641.97
2019-03-19T15:32:51.276Z,102643.69
2019-03-19T15:35:19.968Z,102647.70
2019-03-19T15:37:48.415Z,102642.89
2019-03-19T15:40:18.779Z,102644.88
2019-03-19T15:42:47.318Z,102639.91
2019-03-19T15:45:19.949Z,102641.93
2019-03-19T15:47:48.440Z,102642.61
2019-03-19T15:50:17.342Z,102645.27
2019-03-19T15:52:45.776Z,102643.64
2019-03-19T15:55:14.713Z,102652.86
2019-03-19T15:57:43.608Z,102651.66
2019-03-19T16:00:16.938Z,102648.11
2019-03-19T16:02:45.318Z,102655.39
2019-03-19T16:05:14.949Z,102651.91
2019-03-19T16:07:43.424Z,102658.81
2019-03-19T16:10:13.872Z,102659.58
2019-03-19T16:12:42.768Z,102659.72
2019-03-19T16:15:16.857Z,102667.30
2019-03-19T16:17:45.341Z,102660.03
2019-03-19T16:20:23.077Z,102666.34
2019-03-19T16:22:51.501Z,102665.30
2019-03-19T16:25:20.289Z,102674.02
2019-03-19T16:27:48.811Z,102663.30
2019-03-19T16:30:20.574Z,102670.90
2019-03-19T16:32:49.018Z,102675.66
2019-03-19T16:35:17.551Z,102680.77
2019-03-19T16:37:46.044Z,102688.48
2019-03-19T16:40:17.528Z,102690.72
2019-03-19T16:42:46.136Z,102693.48
2019-03-19T16:45:14.637Z,102698.73
2019-03-19T16:47:43.067Z,102700.95
2019-03-19T16:50:19.347Z,102698.82
2019-03-19T16:52:47.849Z,102703.59
2019-03-19T16:55:17.117Z,102703.63
2019-03-19T16:57:45.571Z,102709.39
2019-03-19T17:00:16.243Z,102714.56
2019-03-19T17:02:44.655Z,102714.22
2019-03-19T17:05:13.943Z,102716.77
2019-03-19T17:07:42.371Z,102717.02
2019-03-19T17:10:13.586Z,102723.11
2019-03-19T17:12:42.404Z,102723.36
2019-03-19T17:15:13.279Z,102725.54
2019-03-19T17:17:41.714Z,102733.02
2019-03-19T17:20:14.641Z,102734.61
2019-03-19T17:22:43.151Z,102734.95
2019-03-19T17:25:17.323Z,102735.66
2019-03-19T17:27:45.931Z,102740.20
2019-03-19T17:30:27.955Z,102738.47
2019-03-19T17:32:56.387Z,102755.12
2019-03-19T17:35:24.807Z,102754.11
2019-03-19T17:37:53.318Z,102749.47
2019-03-19T17:40:21.836Z,102754.50
2019-03-19T17:42:50.288Z,102756.89
2019-03-19T17:45:18.715Z,102754.31
2019-03-19T17:47:47.480Z,102765.13
2019-03-19T17:50:27.492Z,102769.05
2019-03-19T17:52:56.664Z,102769.16
2019-03-19T17:55:25.262Z,102771.02
2019-03-19T17:57:53.697Z,102779.31
2019-03-19T18:00:23.890Z,102774.94
2019-03-19T18:02:52.327Z,102781.87
2019-03-19T18:05:20.751Z,102777.03
2019-03-19T18:07:50.247Z,102782.77
2019-03-19T18:10:19.955Z,102778.84
2019-03-19T18:12:49.755Z,102788.55
2019-03-19T18:15:19.258Z,102790.08
2019-03-19T18:17:47.687Z,102801.02
2019-03-19T18:20:16.774Z,102803.13
2019-03-19T18:22:45.315Z,102806.11
2019-03-19T18:25:15.949Z,102809.17
2019-03-19T18:27:44.691Z,102810.30
2019-03-19T18:30:21.832Z,102816.75
2019-03-19T18:32:50.338Z,102816.59
2019-03-19T18:35:18.859Z,102809.43
2019-03-19T18:37:47.461Z,102813.23
2019-03-19T18:40:19.330Z,102814.42
2019-03-19T18:42:47.763Z,102808.59
2019-03-19T18:45:18.128Z,102809.37
2019-03-19T18:47:46.573Z,102811.02
2019-03-19T18:50:17.432Z,102808.65
2019-03-19T18:52:46.136Z,102812.08
2019-03-19T18:55:14.563Z,102817.20
2019-03-19T18:57:43.147Z,102810.06
2019-03-19T19:00:17.477Z,102809.89
2019-03-19T19:02:50.022Z,102818.48
2019-03-19T19:05:16.996Z,102828.55
2019-03-19T19:07:45.596Z,102825.81
2019-03-19T19:10:20.739Z,102829.60
2019-03-19T19:12:48.150Z,102837.22
2019-03-19T19:15:17.865Z,102832.13
2019-03-19T19:17:46.497Z,102841.97
2019-03-19T19:20:15.672Z,102842.09
2019-03-19T19:22:44.378Z,102846.92
2019-03-19T19:25:14.644Z,102847.88
2019-03-19T19:27:43.081Z,102849.95
2019-03-19T19:30:26.163Z,102852.03
2019-03-19T19:33:01.649Z,102854.48
2019-03-19T19:35:26.080Z,102850.44
2019-03-19T19:37:56.034Z,102859.98
2019-03-19T19:40:26.765Z,102862.05
2019-03-19T19:42:56.295Z,102865.82
2019-03-19T19:45:27.091Z,102872.98
2019-03-19T19:47:55.521Z,102866.57
2019-03-19T19:50:24.119Z,102873.36
2019-03-19T19:52:52.596Z,102868.44
2019-03-19T19:55:21.020Z,102868.24
2019-03-19T19:57:49.548Z,102872.60
2019-03-19T20:00:21.590Z,102879.45
2019-03-19T20:02:49.358Z,102883.33
2019-03-19T20:05:19.175Z,102885.38
2019-03-19T20:07:47.695Z,102890.46
2019-03-19T20:10:18.234Z,102886.30
2019-03-19T20:12:46.661Z,102889.88
2019-03-19T20:15:15.158Z,102888.56
2019-03-19T20:17:43.583Z,102893.45
2019-03-19T20:20:22.737Z,102899.67
2019-03-19T20:22:51.177Z,102890.64
2019-03-19T20:25:19.600Z,102895.55
2019-03-19T20:27:48.073Z,102904.67
2019-03-19T20:30:20.401Z,102900.64
2019-03-19T20:32:49.266Z,102902.31
2019-03-19T20:35:17.703Z,102901.58
2019-03-19T20:37:46.145Z,102898.25
2019-03-19T20:40:15.487Z,102903.25
2019-03-19T20:42:44.380Z,102899.09
2019-03-19T20:45:18.064Z,102908.78
2019-03-19T20:47:46.515Z,102906.62
2019-03-19T20:50:23.945Z,102901.52
2019-03-19T20:52:52.383Z,102909.44
2019-03-19T20:55:20.806Z,102913.02
2019-03-19T20:57:49.338Z,102911.31
2019-03-19T21:00:18.521Z,102922.25
2019-03-19T21:02:46.977Z,102930.55
2019-03-19T21:05:15.626Z,102933.74
2019-03-19T21:07:44.396Z,102922.98
2019-03-19T21:10:19.796Z,102925.72
2019-03-19T21:12:48.582Z,102925.03
2019-03-19T21:15:30.262Z,102930.86
2019-03-19T21:17:59.054Z,102924.44
2019-03-19T21:20:27.564Z,102917.00
2019-03-19T21:22:55.992Z,102920.48
2019-03-19T21:25:24.463Z,102922.38
2019-03-19T21:27:52.959Z,102922.55
2019-03-19T21:30:22.759Z,102921.02
2019-03-19T21:32:51.255Z,102927.78
2019-03-19T21:35:20.652Z,102928.34
2019-03-19T21:37:49.222Z,102932.95
2019-03-19T21:40:17.745Z,102934.50
2019-03-19T21:42:46.209Z,102931.27
2019-03-19T21:45:16.289Z,102930.50
2019-03-19T21:47:44.824Z,102925.78
2019-03-19T21:50:21.237Z,102926.16
2019-03-19T21:52:49.796Z,102925.39
2019-03-19T21:55:18.228Z,102915.43
2019-03-19T21:57:46.670Z,102913.63
2019-03-19T22:00:24.052Z,102908.45
2019-03-19T22:02:52.530Z,102910.55
2019-03-19T22:05:20.964Z,102910.83
2019-03-19T22:07:49.489Z,102906.77
2019-03-19T22:10:20.358Z,102908.47
2019-03-19T22:12:49.487Z,102901.50
2019-03-19T22:15:19.435Z,102903.37
2019-03-19T22:17:47.977Z,102915.05
2019-03-19T22:20:16.571Z,102914.19
2019-03-19T22:22:45.103Z,102915.05
2019-03-19T22:25:14.563Z,102920.32
2019-03-19T22:27:43.317Z,102922.95
2019-03-19T22:30:21.099Z,102927.30
2019-03-19T22:32:49.524Z,102926.43
2019-03-19T22:35:17.943Z,102927.68
2019-03-19T22:37:46.469Z,102932.47
2019-03-19T22:40:18.215Z,102935.88
2019-03-19T22:42:46.891Z,102934.08
2019-03-19T22:45:16.607Z,102940.11
2019-03-19T22:47:45.288Z,102934.84
2019-03-19T22:50:18.427Z,102936.54
2019-03-19T22:52:47.353Z,102938.34
2019-03-19T22:55:16.244Z,102935.61
2019-03-19T22:57:44.798Z,102939.95
2019-03-19T23:00:20.347Z,102930.16
2019-03-19T23:02:48.841Z,102936.97
2019-03-19T23:05:17.264Z,102928.61
2019-03-19T23:07:45.726Z,102935.27
2019-03-19T23:10:14.289Z,102933.02
2019-03-19T23:12:43.153Z,102926.59
2019-03-19T23:15:12.814Z,102932.03
2019-03-19T23:17:41.241Z,102932.59
2019-03-19T23:20:12.244Z,102934.84
2019-03-19T23:22:40.847Z,102932.75
2019-03-19T23:25:09.410Z,102927.68
2019-03-19T23:27:37.838Z,102937.08
2019-03-19T23:30:23.188Z,102931.03
2019-03-19T23:32:51.616Z,102934.22
2019-03-19T23:35:20.043Z,102932.13
2019-03-19T23:37:48.507Z,102938.34
2019-03-19T23:40:17.881Z,102943.78
2019-03-19T23:42:46.301Z,102947.52
2019-03-19T23:45:14.851Z,102947.61
2019-03-19T23:47:43.275Z,102945.05
2019-03-19T23:50:16.680Z,102937.68
2019-03-19T23:52:45.941Z,102933.83
2019-03-19T23:55:14.374Z,102938.23
2019-03-19T23:57:42.803Z,102943.66
